Ansonia, Pennsylvania
Current Conditions -  °F | °C
As of 7:35 PM on Friday 31 Oct 2014 (Local Time) from KN38 Reporting Station
Overcast Overcast  
Wind Chill: 36°   Ceiling: 4400
Heat Index: 41°   Visibility: 10mi
Dew Point: 36°   Wind: 8mph
Humidity: 81%   Direction: 340°NNW
Pressure: 29.91"   Gusts: NA
Location:  41.7308°N, 77.349°W
Report Text: KN38 312335Z AUTO 34007KT 10SM OVC044 05/02 A2991 RMK AO2
Loading
Personal Weather Stations






























Interactive Weather Map
Tropical Storm Tracking
New forecast layout! Learn more

10-Day Weather Forecast

Advertisements
Track Severe Weather on mobile